createdAt,value
2023-06-30T00:00:58.241Z,10.52
2023-06-30T00:03:25.339Z,10.85
2023-06-30T00:05:53.096Z,11.85
2023-06-30T00:08:20.172Z,13.25
2023-06-30T00:10:46.924Z,12.30
2023-06-30T00:13:13.468Z,14.65
2023-06-30T00:15:39.933Z,11.77
2023-06-30T00:18:06.509Z,12.98
2023-06-30T00:20:35.982Z,12.77
2023-06-30T00:23:02.449Z,11.40
2023-06-30T00:25:29.001Z,12.75
2023-06-30T00:27:55.496Z,14.60
2023-06-30T00:30:21.967Z,11.98
2023-06-30T00:32:48.610Z,12.07
2023-06-30T00:35:15.219Z,10.23
2023-06-30T00:37:41.647Z,10.57
2023-06-30T00:40:08.572Z,10.30
2023-06-30T00:42:35.108Z,11.00
2023-06-30T00:45:01.620Z,10.77
2023-06-30T00:47:28.166Z,13.32
2023-06-30T00:49:54.693Z,12.93
2023-06-30T00:52:21.233Z,12.00
2023-06-30T00:54:47.762Z,10.85
2023-06-30T00:57:14.276Z,12.20
2023-06-30T00:59:40.780Z,8.82
2023-06-30T01:02:15.169Z,12.50
2023-06-30T01:04:56.594Z,11.18
2023-06-30T01:07:45.159Z,10.77
2023-06-30T01:10:14.943Z,11.02
2023-06-30T01:12:43.180Z,12.63
2023-06-30T01:15:10.610Z,11.57
2023-06-30T01:17:46.508Z,11.05
2023-06-30T01:20:18.712Z,13.73
2023-06-30T01:23:01.342Z,11.38
2023-06-30T01:25:30.458Z,10.02
2023-06-30T01:27:58.796Z,12.70
2023-06-30T01:32:59.708Z,12.18
2023-06-30T01:35:28.104Z,15.38
2023-06-30T01:37:57.406Z,12.30
2023-06-30T01:40:24.162Z,10.50
2023-06-30T01:42:55.517Z,11.93
2023-06-30T01:45:24.345Z,13.70
2023-06-30T01:47:51.896Z,13.32
2023-06-30T01:50:19.728Z,13.77
2023-06-30T01:52:46.262Z,11.32
2023-06-30T01:55:12.779Z,13.88
2023-06-30T01:57:39.222Z,13.48
2023-06-30T02:00:06.625Z,14.40
2023-06-30T02:02:33.568Z,12.55
2023-06-30T02:05:00.285Z,14.65
2023-06-30T02:07:26.831Z,11.05
2023-06-30T02:09:53.425Z,13.65
2023-06-30T02:12:19.882Z,13.18
2023-06-30T02:14:46.361Z,10.65
2023-06-30T02:17:12.854Z,14.85
2023-06-30T02:19:39.456Z,12.75
2023-06-30T02:22:06.054Z,12.98
2023-06-30T02:24:32.546Z,12.35
2023-06-30T02:26:59.171Z,12.25
2023-06-30T02:29:25.650Z,14.15
2023-06-30T02:31:52.156Z,11.88
2023-06-30T02:34:19.804Z,13.88
2023-06-30T02:36:46.320Z,13.40
2023-06-30T02:39:12.834Z,12.77
2023-06-30T02:41:39.288Z,12.38
2023-06-30T02:44:05.772Z,11.55
2023-06-30T02:46:32.232Z,12.15
2023-06-30T02:48:58.811Z,11.60
2023-06-30T02:51:25.346Z,10.27
2023-06-30T02:53:51.836Z,13.50
2023-06-30T02:56:18.678Z,12.57
2023-06-30T02:58:45.361Z,12.45
2023-06-30T03:01:12.161Z,11.52
2023-06-30T03:03:39.683Z,13.00
2023-06-30T03:06:06.232Z,10.98
2023-06-30T03:08:32.711Z,12.18
2023-06-30T03:10:59.186Z,13.10
2023-06-30T03:13:25.620Z,12.80
2023-06-30T03:15:52.094Z,15.55
2023-06-30T03:18:18.548Z,14.40
2023-06-30T03:20:45.006Z,12.82
2023-06-30T03:23:14.655Z,13.20
2023-06-30T03:25:41.757Z,11.32
2023-06-30T03:28:08.237Z,14.18
2023-06-30T03:30:34.766Z,15.63
2023-06-30T03:33:01.418Z,11.85
2023-06-30T03:35:27.880Z,13.15
2023-06-30T03:37:54.527Z,12.07
2023-06-30T03:40:21.248Z,16.25
2023-06-30T03:42:47.726Z,12.45
2023-06-30T03:45:14.319Z,12.93
2023-06-30T03:47:41.025Z,13.07
2023-06-30T03:50:10.553Z,14.32
2023-06-30T03:52:37.024Z,13.63
2023-06-30T03:55:03.937Z,11.95
2023-06-30T03:57:30.524Z,14.20
2023-06-30T03:59:57.045Z,11.68
2023-06-30T04:02:23.672Z,14.23
2023-06-30T04:04:50.233Z,13.98
2023-06-30T04:07:16.884Z,13.55
2023-06-30T04:09:43.445Z,13.15
2023-06-30T04:12:10.281Z,12.95
2023-06-30T04:14:36.730Z,12.68
2023-06-30T04:17:03.409Z,12.50
2023-06-30T04:19:29.901Z,13.93
2023-06-30T04:21:56.388Z,12.52
2023-06-30T04:24:22.927Z,15.30
2023-06-30T04:26:49.443Z,13.43
2023-06-30T04:29:16.759Z,14.35
2023-06-30T04:31:43.671Z,15.18
2023-06-30T04:34:10.280Z,13.32
2023-06-30T04:36:36.865Z,13.15
2023-06-30T04:39:03.730Z,11.77
2023-06-30T04:41:30.314Z,15.13
2023-06-30T04:43:56.828Z,13.02
2023-06-30T04:46:26.359Z,15.20
2023-06-30T04:48:53.244Z,14.02
2023-06-30T04:51:20.231Z,15.45
2023-06-30T04:53:46.822Z,16.83
2023-06-30T04:56:13.274Z,16.40
2023-06-30T04:58:39.778Z,15.95
2023-06-30T05:01:06.358Z,16.95
2023-06-30T05:03:32.969Z,14.32
2023-06-30T05:06:00.462Z,16.75
2023-06-30T05:08:27.515Z,14.93
2023-06-30T05:10:54.241Z,16.27
2023-06-30T05:13:20.781Z,16.00
2023-06-30T05:15:47.463Z,14.40
2023-06-30T05:18:15.272Z,15.25
2023-06-30T05:20:42.031Z,12.90
2023-06-30T05:23:08.587Z,14.80
2023-06-30T05:25:35.612Z,13.90
2023-06-30T05:28:02.183Z,15.15
2023-06-30T05:30:28.869Z,13.73
2023-06-30T05:32:55.371Z,15.48
2023-06-30T05:35:21.922Z,17.45
2023-06-30T05:37:48.488Z,16.13
2023-06-30T05:40:15.116Z,14.98
2023-06-30T05:42:41.759Z,15.68
2023-06-30T05:45:08.726Z,20.02
2023-06-30T05:47:35.323Z,12.93
2023-06-30T05:50:01.901Z,15.80
2023-06-30T05:52:28.477Z,15.90
2023-06-30T05:54:55.180Z,16.17
2023-06-30T05:57:21.675Z,16.88
2023-06-30T05:59:48.416Z,15.10
2023-06-30T06:02:15.278Z,13.85
2023-06-30T06:04:42.103Z,16.08
2023-06-30T06:07:10.615Z,14.82
2023-06-30T06:12:03.698Z,13.20
2023-06-30T06:14:30.243Z,16.35
2023-06-30T06:16:56.773Z,15.32
2023-06-30T06:19:23.341Z,15.07
2023-06-30T06:21:49.848Z,12.98
2023-06-30T06:24:19.154Z,12.70
2023-06-30T06:26:45.699Z,14.45
2023-06-30T06:29:17.955Z,13.38
2023-06-30T06:31:45.901Z,13.48
2023-06-30T06:34:12.630Z,15.48
2023-06-30T06:36:39.101Z,14.68
2023-06-30T06:39:05.677Z,15.50
2023-06-30T06:41:32.964Z,14.93
2023-06-30T06:43:59.508Z,11.27
2023-06-30T06:46:26.073Z,15.43
2023-06-30T06:48:52.700Z,12.50
2023-06-30T06:51:19.235Z,13.68
2023-06-30T06:53:45.725Z,14.45
2023-06-30T06:56:12.319Z,14.13
2023-06-30T06:58:41.994Z,13.15
2023-06-30T07:01:08.533Z,12.50
2023-06-30T07:03:35.432Z,15.52
2023-06-30T07:06:02.152Z,13.27
2023-06-30T07:08:29.501Z,12.27
2023-06-30T07:10:57.220Z,13.00
2023-06-30T07:13:23.733Z,13.88
2023-06-30T07:15:51.426Z,14.63
2023-06-30T07:18:19.926Z,14.68
2023-06-30T07:20:51.472Z,16.85
2023-06-30T07:23:20.744Z,13.75
2023-06-30T07:25:48.918Z,16.15
2023-06-30T07:30:46.220Z,14.80
2023-06-30T07:33:13.616Z,15.63
2023-06-30T07:35:40.377Z,11.77
2023-06-30T07:38:06.965Z,16.55
2023-06-30T07:40:46.445Z,16.70
2023-06-30T07:43:20.065Z,16.20
2023-06-30T07:45:46.856Z,14.98
2023-06-30T07:48:13.890Z,15.45
2023-06-30T07:50:44.991Z,15.65
2023-06-30T07:53:17.663Z,15.48
2023-06-30T07:55:44.399Z,15.05
2023-06-30T07:58:11.183Z,16.45
2023-06-30T08:00:37.687Z,16.38
2023-06-30T08:03:04.232Z,13.88
2023-06-30T08:05:30.995Z,17.27
2023-06-30T08:07:57.534Z,17.05
2023-06-30T08:10:24.107Z,16.90
2023-06-30T08:12:50.560Z,16.55
2023-06-30T08:15:17.085Z,15.90
2023-06-30T08:17:53.083Z,18.60
2023-06-30T08:20:25.869Z,17.95
2023-06-30T08:22:52.861Z,17.27
2023-06-30T08:25:26.209Z,17.92
2023-06-30T08:27:53.079Z,17.77
2023-06-30T08:30:22.766Z,18.92
2023-06-30T08:32:50.650Z,16.42
2023-06-30T08:35:17.651Z,20.63
2023-06-30T08:37:44.163Z,17.15
2023-06-30T08:40:11.283Z,19.52
2023-06-30T08:42:42.105Z,16.98
2023-06-30T08:45:11.043Z,17.58
2023-06-30T08:47:38.535Z,19.20
2023-06-30T08:50:07.511Z,19.58
2023-06-30T08:52:35.590Z,19.35
2023-06-30T08:55:04.015Z,17.15
2023-06-30T08:57:32.524Z,20.08
2023-06-30T08:59:59.141Z,19.70
2023-06-30T09:02:27.433Z,19.23
2023-06-30T09:04:54.835Z,18.40
2023-06-30T09:07:27.670Z,18.70
2023-06-30T09:10:01.012Z,16.15
2023-06-30T09:12:27.744Z,18.10
2023-06-30T09:14:57.401Z,18.10
2023-06-30T09:17:25.832Z,22.05
2023-06-30T09:19:53.073Z,18.55
2023-06-30T09:22:55.260Z,17.05
2023-06-30T09:25:26.981Z,18.48
2023-06-30T09:27:54.867Z,17.40
2023-06-30T09:30:34.656Z,17.83
2023-06-30T09:33:02.352Z,18.27
2023-06-30T09:35:43.383Z,18.70
2023-06-30T09:38:17.125Z,20.58
2023-06-30T09:40:47.986Z,19.02
2023-06-30T09:43:19.526Z,17.23
2023-06-30T09:45:49.427Z,17.27
2023-06-30T09:48:16.470Z,21.05
2023-06-30T09:50:43.499Z,20.38
2023-06-30T09:53:10.415Z,20.35
2023-06-30T09:55:57.267Z,21.75
2023-06-30T09:58:23.729Z,20.80
2023-06-30T10:00:52.543Z,19.55
2023-06-30T10:03:19.948Z,20.63
2023-06-30T10:05:49.838Z,21.45
2023-06-30T10:08:17.804Z,21.60
2023-06-30T10:10:44.776Z,19.92
2023-06-30T10:13:16.402Z,22.45
2023-06-30T10:15:43.813Z,21.65
2023-06-30T10:18:12.298Z,21.75
2023-06-30T10:20:47.784Z,21.75
2023-06-30T10:23:15.457Z,21.70
2023-06-30T10:25:42.761Z,22.13
2023-06-30T10:28:09.669Z,25.30
2023-06-30T10:30:36.631Z,29.90
2023-06-30T10:33:03.328Z,25.30
2023-06-30T10:35:31.637Z,21.98
2023-06-30T10:37:58.821Z,28.58
2023-06-30T10:40:30.486Z,31.02
2023-06-30T10:42:57.886Z,23.25
2023-06-30T10:45:34.078Z,23.95
2023-06-30T10:48:10.790Z,22.42
2023-06-30T10:50:45.393Z,23.63
2023-06-30T10:53:19.402Z,23.35
2023-06-30T10:55:47.397Z,20.10
2023-06-30T10:58:24.231Z,19.75
2023-06-30T11:01:05.125Z,20.00
2023-06-30T11:03:56.684Z,18.20
2023-06-30T11:06:24.329Z,16.98
2023-06-30T11:09:01.627Z,16.50
2023-06-30T11:11:30.946Z,17.25
2023-06-30T11:14:07.786Z,17.70
2023-06-30T11:17:06.551Z,17.63
2023-06-30T11:19:37.563Z,18.33
2023-06-30T11:22:23.739Z,17.20
2023-06-30T11:24:50.326Z,18.55
2023-06-30T11:27:17.060Z,18.05
2023-06-30T11:29:43.810Z,16.27
2023-06-30T11:32:10.451Z,16.02
2023-06-30T11:34:37.184Z,17.25
2023-06-30T11:37:07.032Z,19.30
2023-06-30T11:39:35.627Z,16.80
2023-06-30T11:42:02.227Z,13.30
2023-06-30T11:44:28.656Z,16.63
2023-06-30T11:46:58.524Z,14.48
2023-06-30T11:49:27.606Z,16.23
2023-06-30T11:51:54.190Z,15.07
2023-06-30T11:54:30.170Z,14.73
2023-06-30T11:56:58.817Z,14.18
2023-06-30T11:59:28.124Z,14.93
2023-06-30T12:01:55.058Z,14.88
2023-06-30T12:04:21.680Z,11.27
2023-06-30T12:06:48.645Z,11.27
2023-06-30T12:09:15.580Z,11.93
2023-06-30T12:11:51.126Z,10.23
2023-06-30T12:14:22.764Z,8.95
2023-06-30T12:17:04.299Z,11.90
2023-06-30T12:19:30.741Z,8.02
2023-06-30T12:22:04.456Z,9.15
2023-06-30T12:24:33.174Z,6.75
2023-06-30T12:27:03.187Z,8.40
2023-06-30T12:29:33.012Z,7.85
2023-06-30T12:31:59.816Z,8.80
2023-06-30T12:34:37.298Z,6.53
2023-06-30T12:37:04.519Z,8.77
2023-06-30T12:39:30.981Z,8.57
2023-06-30T12:41:57.507Z,7.38
2023-06-30T12:44:24.058Z,7.70
2023-06-30T12:47:07.191Z,11.05
2023-06-30T12:49:37.549Z,11.65
2023-06-30T12:52:04.799Z,12.18
2023-06-30T12:54:31.624Z,12.80
2023-06-30T12:56:58.185Z,12.25
2023-06-30T12:59:24.830Z,15.45
2023-06-30T13:01:51.565Z,12.60
2023-06-30T13:04:18.114Z,14.30
2023-06-30T13:06:44.636Z,13.68
2023-06-30T13:09:11.194Z,11.35
2023-06-30T13:11:37.718Z,11.02
2023-06-30T13:14:05.388Z,6.85
2023-06-30T13:16:32.611Z,6.70
2023-06-30T13:18:59.859Z,7.35
2023-06-30T13:21:26.361Z,5.85
2023-06-30T13:23:52.824Z,6.28
2023-06-30T13:26:19.340Z,4.93
2023-06-30T13:28:45.853Z,4.57
2023-06-30T13:31:12.581Z,4.55
2023-06-30T13:33:39.232Z,4.65
2023-06-30T13:36:09.082Z,4.90
2023-06-30T13:38:35.803Z,4.38
2023-06-30T13:41:02.493Z,4.55
2023-06-30T13:43:29.960Z,3.88
2023-06-30T13:45:56.778Z,4.50
2023-06-30T13:48:23.195Z,3.10
2023-06-30T13:50:50.000Z,3.80
2023-06-30T13:53:16.560Z,3.72
2023-06-30T13:55:43.018Z,3.05
2023-06-30T13:58:12.355Z,4.05
2023-06-30T14:00:38.903Z,3.20
2023-06-30T14:03:05.595Z,2.90
2023-06-30T14:05:32.251Z,3.65
2023-06-30T14:07:59.944Z,3.13
2023-06-30T14:10:26.396Z,3.60
2023-06-30T14:12:52.889Z,3.20
2023-06-30T14:15:20.814Z,3.78
2023-06-30T14:17:47.742Z,3.42
2023-06-30T14:20:14.316Z,3.33
2023-06-30T14:22:40.748Z,3.88
2023-06-30T14:25:07.565Z,3.10
2023-06-30T14:27:34.312Z,3.20
2023-06-30T14:30:00.858Z,3.28
2023-06-30T14:32:27.987Z,4.15
2023-06-30T14:34:54.493Z,4.20
2023-06-30T14:37:21.725Z,4.70
2023-06-30T14:39:48.270Z,3.50
2023-06-30T14:42:27.139Z,2.58
2023-06-30T14:44:57.735Z,3.00
2023-06-30T14:47:24.273Z,3.22
2023-06-30T14:49:50.749Z,2.55
2023-06-30T14:52:17.305Z,3.38
2023-06-30T14:54:43.839Z,2.63
2023-06-30T14:57:10.334Z,2.70
2023-06-30T14:59:36.837Z,2.00
2023-06-30T15:02:03.590Z,4.15
2023-06-30T15:04:30.100Z,2.80
2023-06-30T15:06:57.732Z,4.13
2023-06-30T15:09:24.232Z,3.30
2023-06-30T15:11:51.212Z,3.55
2023-06-30T15:14:17.641Z,3.22
2023-06-30T15:16:44.175Z,3.67
2023-06-30T15:19:10.772Z,3.25
2023-06-30T15:21:37.302Z,3.13
2023-06-30T15:24:03.968Z,3.97
2023-06-30T15:26:30.474Z,2.70
2023-06-30T15:28:56.980Z,3.35
2023-06-30T15:31:23.466Z,2.90
2023-06-30T15:33:50.190Z,2.72
2023-06-30T15:36:16.904Z,3.05
2023-06-30T15:38:43.353Z,3.22
2023-06-30T15:41:21.608Z,10.20
2023-06-30T15:43:49.099Z,3.20
2023-06-30T15:46:17.137Z,4.20
2023-06-30T15:48:43.616Z,3.35
2023-06-30T15:51:10.129Z,4.20
2023-06-30T15:53:36.695Z,3.13
2023-06-30T15:56:03.275Z,2.83
2023-06-30T15:58:29.710Z,3.40
2023-06-30T16:00:56.179Z,2.10
2023-06-30T16:03:22.777Z,2.33
2023-06-30T16:05:49.900Z,2.33
2023-06-30T16:08:16.667Z,2.17
2023-06-30T16:10:43.133Z,2.78
2023-06-30T16:13:12.967Z,2.80
2023-06-30T16:15:39.967Z,2.30
2023-06-30T16:18:06.454Z,2.70
2023-06-30T16:20:32.966Z,2.45
2023-06-30T16:22:59.786Z,2.85
2023-06-30T16:25:26.240Z,2.78
2023-06-30T16:27:52.736Z,2.67
2023-06-30T16:30:29.692Z,2.15
2023-06-30T16:32:57.639Z,2.85
2023-06-30T16:35:25.609Z,4.28
2023-06-30T16:37:56.340Z,3.35
2023-06-30T16:40:22.854Z,2.42
2023-06-30T16:42:49.461Z,3.38
2023-06-30T16:45:16.289Z,3.60
2023-06-30T16:47:47.086Z,2.38
2023-06-30T16:50:14.795Z,2.58
2023-06-30T16:52:43.450Z,3.55
2023-06-30T16:55:10.493Z,2.47
2023-06-30T16:57:40.760Z,3.08
2023-06-30T17:00:09.988Z,2.50
2023-06-30T17:02:37.985Z,2.95
2023-06-30T17:05:05.388Z,3.25
2023-06-30T17:07:32.089Z,2.40
2023-06-30T17:09:58.760Z,3.15
2023-06-30T17:12:25.357Z,3.35
2023-06-30T17:14:51.870Z,2.88
2023-06-30T17:17:18.586Z,3.65
2023-06-30T17:19:45.158Z,2.80
2023-06-30T17:22:11.823Z,2.60
2023-06-30T17:24:38.288Z,3.42
2023-06-30T17:27:05.045Z,4.28
2023-06-30T17:29:31.649Z,3.30
2023-06-30T17:31:58.089Z,3.10
2023-06-30T17:34:24.553Z,2.80
2023-06-30T17:37:00.609Z,4.13
2023-06-30T17:39:27.090Z,4.07
2023-06-30T17:41:53.614Z,2.38
2023-06-30T17:44:20.685Z,3.63
2023-06-30T17:46:47.213Z,3.72
2023-06-30T17:49:25.352Z,2.70
2023-06-30T17:51:52.309Z,3.75
2023-06-30T17:54:21.823Z,3.00
2023-06-30T17:56:48.760Z,2.97
2023-06-30T17:59:15.649Z,3.90
2023-06-30T18:01:43.197Z,2.60
2023-06-30T18:04:10.066Z,2.90
2023-06-30T18:07:02.934Z,3.10
2023-06-30T18:09:30.502Z,3.22
2023-06-30T18:11:59.028Z,2.40
2023-06-30T18:16:52.631Z,5.03
2023-06-30T18:19:20.031Z,6.38
2023-06-30T18:21:51.056Z,3.45
2023-06-30T18:24:18.266Z,2.85
2023-06-30T18:26:49.039Z,3.17
2023-06-30T18:29:16.833Z,2.83
2023-06-30T18:31:43.545Z,3.97
2023-06-30T18:34:10.147Z,2.85
2023-06-30T18:36:36.589Z,4.75
2023-06-30T18:39:04.330Z,3.30
2023-06-30T18:41:31.124Z,3.47
2023-06-30T18:43:57.622Z,4.63
2023-06-30T18:46:26.663Z,3.10
2023-06-30T18:48:53.638Z,2.85
2023-06-30T18:51:20.623Z,4.38
2023-06-30T18:53:47.075Z,3.20
2023-06-30T18:56:15.218Z,2.80
2023-06-30T18:58:41.745Z,4.85
2023-06-30T19:01:10.881Z,3.17
2023-06-30T19:03:37.480Z,2.78
2023-06-30T19:06:04.074Z,3.15
2023-06-30T19:08:30.529Z,4.47
2023-06-30T19:10:57.062Z,3.97
2023-06-30T19:13:23.707Z,3.13
2023-06-30T19:15:50.448Z,3.83
2023-06-30T19:18:20.374Z,3.38
2023-06-30T19:20:48.257Z,3.42
2023-06-30T19:23:14.992Z,3.30
2023-06-30T19:25:44.601Z,3.33
2023-06-30T19:28:12.114Z,3.10
2023-06-30T19:30:38.587Z,3.83
2023-06-30T19:33:05.952Z,3.58
2023-06-30T19:35:32.884Z,4.88
2023-06-30T19:37:59.495Z,3.53
2023-06-30T19:40:26.019Z,3.28
2023-06-30T19:42:52.525Z,4.32
2023-06-30T19:45:19.131Z,3.33
2023-06-30T19:47:48.549Z,3.78
2023-06-30T19:50:15.344Z,3.80
2023-06-30T19:52:43.141Z,4.47
2023-06-30T19:55:09.956Z,4.15
2023-06-30T19:57:36.406Z,3.20
2023-06-30T20:00:03.108Z,3.85
2023-06-30T20:02:29.634Z,4.30
2023-06-30T20:04:57.106Z,4.45
2023-06-30T20:07:23.612Z,5.25
2023-06-30T20:09:50.788Z,3.20
2023-06-30T20:12:17.445Z,3.40
2023-06-30T20:14:43.881Z,2.63
2023-06-30T20:17:10.384Z,3.60
2023-06-30T20:19:39.517Z,3.20
2023-06-30T20:22:06.806Z,3.78
2023-06-30T20:24:33.423Z,4.35
2023-06-30T20:27:01.157Z,5.57
2023-06-30T20:29:28.104Z,3.85
2023-06-30T20:31:54.904Z,5.20
2023-06-30T20:34:21.386Z,4.07
2023-06-30T20:36:47.856Z,4.00
2023-06-30T20:39:14.320Z,4.78
2023-06-30T20:41:40.894Z,3.55
2023-06-30T20:44:08.831Z,5.50
2023-06-30T20:46:35.636Z,6.13
2023-06-30T20:49:02.178Z,5.20
2023-06-30T20:51:28.699Z,3.88
2023-06-30T20:53:55.163Z,4.22
2023-06-30T20:56:21.681Z,4.05
2023-06-30T20:58:48.120Z,5.65
2023-06-30T21:01:14.610Z,5.70
2023-06-30T21:03:41.191Z,4.72
2023-06-30T21:06:07.843Z,5.00
2023-06-30T21:08:34.392Z,4.22
2023-06-30T21:11:00.859Z,5.28
2023-06-30T21:13:28.180Z,5.85
2023-06-30T21:15:54.699Z,6.00
2023-06-30T21:18:21.145Z,6.43
2023-06-30T21:20:47.903Z,8.55
2023-06-30T21:23:14.648Z,7.70
2023-06-30T21:25:41.484Z,7.03
2023-06-30T21:28:07.940Z,4.57
2023-06-30T21:30:34.376Z,6.72
2023-06-30T21:33:02.393Z,5.68
2023-06-30T21:35:29.656Z,5.53
2023-06-30T21:37:56.195Z,7.40
2023-06-30T21:40:23.448Z,7.78
2023-06-30T21:42:51.536Z,7.53
2023-06-30T21:45:22.425Z,9.98
2023-06-30T21:47:51.996Z,7.88
2023-06-30T21:50:20.160Z,6.65
2023-06-30T21:52:48.395Z,7.93
2023-06-30T21:55:16.247Z,9.10
2023-06-30T21:57:44.182Z,10.52
2023-06-30T22:00:12.426Z,10.70
2023-06-30T22:02:44.092Z,9.05
2023-06-30T22:05:12.757Z,10.70
2023-06-30T22:07:40.380Z,11.25
2023-06-30T22:10:08.908Z,10.80
2023-06-30T22:12:40.471Z,8.57
2023-06-30T22:15:09.293Z,9.27
2023-06-30T22:17:38.704Z,10.38
2023-06-30T22:20:11.185Z,11.00
2023-06-30T22:22:39.245Z,11.57
2023-06-30T22:25:10.087Z,10.20
2023-06-30T22:27:36.718Z,12.13
2023-06-30T22:30:03.545Z,11.75
2023-06-30T22:32:30.157Z,12.50
2023-06-30T22:34:56.656Z,14.07
2023-06-30T22:37:23.113Z,14.02
2023-06-30T22:39:49.529Z,13.30
2023-06-30T22:42:16.042Z,13.02
2023-06-30T22:44:42.631Z,11.90
2023-06-30T22:47:10.359Z,15.35
2023-06-30T22:49:37.172Z,12.07
2023-06-30T22:52:03.913Z,12.07
2023-06-30T22:54:30.358Z,12.40
2023-06-30T22:56:57.620Z,11.63
2023-06-30T22:59:24.091Z,10.85
2023-06-30T23:01:50.731Z,14.30
2023-06-30T23:04:17.509Z,10.27
2023-06-30T23:06:44.163Z,12.85
2023-06-30T23:09:10.801Z,8.68
2023-06-30T23:11:37.310Z,12.52
2023-06-30T23:14:05.080Z,12.10
2023-06-30T23:16:38.373Z,11.93
2023-06-30T23:19:07.145Z,16.25
2023-06-30T23:21:34.818Z,9.68
2023-06-30T23:24:01.413Z,10.40
2023-06-30T23:26:27.910Z,11.75
2023-06-30T23:28:55.237Z,9.50
2023-06-30T23:31:21.886Z,7.97
2023-06-30T23:33:53.055Z,8.80
2023-06-30T23:36:20.714Z,8.02
2023-06-30T23:38:47.314Z,8.70
2023-06-30T23:41:14.930Z,8.63
2023-06-30T23:43:41.534Z,11.30
2023-06-30T23:46:17.370Z,10.60
2023-06-30T23:48:44.047Z,11.45
2023-06-30T23:51:10.610Z,10.85
2023-06-30T23:53:37.173Z,9.15
2023-06-30T23:56:04.665Z,9.43
2023-06-30T23:58:32.548Z,9.88
